sensor_id;sensor_type;location;lat;lon;timestamp;temperature;humidity
71523;HTU21D;59343;51.102;5.884;2023-05-10T00:02:07;15.75;86.45
71523;HTU21D;59343;51.102;5.884;2023-05-10T00:04:33;15.71;86.53
71523;HTU21D;59343;51.102;5.884;2023-05-10T00:06:59;15.70;86.61
71523;HTU21D;59343;51.102;5.884;2023-05-10T00:09:25;15.67;86.70
71523;HTU21D;59343;51.102;5.884;2023-05-10T00:11:50;15.67;86.79
71523;HTU21D;59343;51.102;5.884;2023-05-10T00:14:17;15.61;86.90
71523;HTU21D;59343;51.102;5.884;2023-05-10T00:16:42;15.61;87.08
71523;HTU21D;59343;51.102;5.884;2023-05-10T00:19:08;15.60;87.19
71523;HTU21D;59343;51.102;5.884;2023-05-10T00:21:34;15.61;87.17
71523;HTU21D;59343;51.102;5.884;2023-05-10T00:24:00;15.61;86.99
71523;HTU21D;59343;51.102;5.884;2023-05-10T00:26:26;15.56;87.03
71523;HTU21D;59343;51.102;5.884;2023-05-10T00:28:54;15.51;87.22
71523;HTU21D;59343;51.102;5.884;2023-05-10T00:31:20;15.54;87.37
71523;HTU21D;59343;51.102;5.884;2023-05-10T00:33:46;15.48;87.48
71523;HTU21D;59343;51.102;5.884;2023-05-10T00:36:12;15.47;87.60
71523;HTU21D;59343;51.102;5.884;2023-05-10T00:38:37;15.46;87.50
71523;HTU21D;59343;51.102;5.884;2023-05-10T00:41:03;15.45;87.53
71523;HTU21D;59343;51.102;5.884;2023-05-10T00:43:32;15.42;87.48
71523;HTU21D;59343;51.102;5.884;2023-05-10T00:45:58;15.42;87.50
71523;HTU21D;59343;51.102;5.884;2023-05-10T00:48:24;15.42;87.59
71523;HTU21D;59343;51.102;5.884;2023-05-10T00:50:50;15.43;87.64
71523;HTU21D;59343;51.102;5.884;2023-05-10T00:53:17;15.46;87.64
71523;HTU21D;59343;51.102;5.884;2023-05-10T00:55:44;15.49;87.44
71523;HTU21D;59343;51.102;5.884;2023-05-10T00:58:10;15.49;87.30
71523;HTU21D;59343;51.102;5.884;2023-05-10T01:00:37;15.46;87.42
71523;HTU21D;59343;51.102;5.884;2023-05-10T01:03:04;15.47;87.44
71523;HTU21D;59343;51.102;5.884;2023-05-10T01:05:30;15.48;87.32
71523;HTU21D;59343;51.102;5.884;2023-05-10T01:07:56;15.49;87.35
71523;HTU21D;59343;51.102;5.884;2023-05-10T01:10:23;15.54;87.29
71523;HTU21D;59343;51.102;5.884;2023-05-10T01:12:50;15.57;87.19
71523;HTU21D;59343;51.102;5.884;2023-05-10T01:15:17;15.57;87.09
71523;HTU21D;59343;51.102;5.884;2023-05-10T01:17:47;15.59;87.08
71523;HTU21D;59343;51.102;5.884;2023-05-10T01:20:14;15.65;86.96
71523;HTU21D;59343;51.102;5.884;2023-05-10T01:23:00;15.68;86.88
71523;HTU21D;59343;51.102;5.884;2023-05-10T01:31:28;15.70;86.63
71523;HTU21D;59343;51.102;5.884;2023-05-10T01:34:09;15.72;86.61
71523;HTU21D;59343;51.102;5.884;2023-05-10T01:36:54;15.70;86.57
71523;HTU21D;59343;51.102;5.884;2023-05-10T01:39:40;15.70;86.71
71523;HTU21D;59343;51.102;5.884;2023-05-10T01:42:26;15.71;86.83
71523;HTU21D;59343;51.102;5.884;2023-05-10T01:47:43;15.70;86.81
71523;HTU21D;59343;51.102;5.884;2023-05-10T01:50:17;15.70;86.77
71523;HTU21D;59343;51.102;5.884;2023-05-10T01:52:50;15.69;86.75
71523;HTU21D;59343;51.102;5.884;2023-05-10T01:55:20;15.69;86.89
71523;HTU21D;59343;51.102;5.884;2023-05-10T01:57:51;15.67;86.86
71523;HTU21D;59343;51.102;5.884;2023-05-10T02:00:20;15.65;86.96
71523;HTU21D;59343;51.102;5.884;2023-05-10T02:02:48;15.62;87.03
71523;HTU21D;59343;51.102;5.884;2023-05-10T02:05:16;15.61;87.04
71523;HTU21D;59343;51.102;5.884;2023-05-10T02:07:44;15.58;87.08
71523;HTU21D;59343;51.102;5.884;2023-05-10T02:10:11;15.57;87.16
71523;HTU21D;59343;51.102;5.884;2023-05-10T02:12:46;15.56;87.22
71523;HTU21D;59343;51.102;5.884;2023-05-10T02:15:22;15.55;87.26
71523;HTU21D;59343;51.102;5.884;2023-05-10T02:17:55;15.51;87.47
71523;HTU21D;59343;51.102;5.884;2023-05-10T02:20:23;15.51;87.49
71523;HTU21D;59343;51.102;5.884;2023-05-10T02:22:56;15.49;87.43
71523;HTU21D;59343;51.102;5.884;2023-05-10T02:25:24;15.48;87.44
71523;HTU21D;59343;51.102;5.884;2023-05-10T02:27:56;15.47;87.54
71523;HTU21D;59343;51.102;5.884;2023-05-10T02:30:24;15.48;87.57
71523;HTU21D;59343;51.102;5.884;2023-05-10T02:32:51;15.48;87.50
71523;HTU21D;59343;51.102;5.884;2023-05-10T02:35:19;15.48;87.55
71523;HTU21D;59343;51.102;5.884;2023-05-10T02:37:46;15.48;87.51
71523;HTU21D;59343;51.102;5.884;2023-05-10T02:40:16;15.52;87.42
71523;HTU21D;59343;51.102;5.884;2023-05-10T02:42:45;15.51;87.36
71523;HTU21D;59343;51.102;5.884;2023-05-10T02:45:27;15.48;87.22
71523;HTU21D;59343;51.102;5.884;2023-05-10T02:47:55;15.46;87.24
71523;HTU21D;59343;51.102;5.884;2023-05-10T02:50:27;15.43;87.31
71523;HTU21D;59343;51.102;5.884;2023-05-10T02:53:00;15.39;87.32
71523;HTU21D;59343;51.102;5.884;2023-05-10T02:55:33;15.40;87.28
71523;HTU21D;59343;51.102;5.884;2023-05-10T02:58:02;15.36;87.19
71523;HTU21D;59343;51.102;5.884;2023-05-10T03:00:35;15.31;87.12
71523;HTU21D;59343;51.102;5.884;2023-05-10T03:03:53;15.29;87.05
71523;HTU21D;59343;51.102;5.884;2023-05-10T03:06:19;15.28;87.04
71523;HTU21D;59343;51.102;5.884;2023-05-10T03:08:51;15.26;86.94
71523;HTU21D;59343;51.102;5.884;2023-05-10T03:18:29;15.21;86.51
71523;HTU21D;59343;51.102;5.884;2023-05-10T03:32:21;15.02;85.94
71523;HTU21D;59343;51.102;5.884;2023-05-10T03:35:10;14.97;86.16
71523;HTU21D;59343;51.102;5.884;2023-05-10T08:14:04;15.80;80.79
71523;HTU21D;59343;51.102;5.884;2023-05-10T08:16:35;15.78;80.54
71523;HTU21D;59343;51.102;5.884;2023-05-10T08:19:00;15.74;80.78
71523;HTU21D;59343;51.102;5.884;2023-05-10T08:21:27;15.75;81.08
71523;HTU21D;59343;51.102;5.884;2023-05-10T08:24:04;15.84;81.05
71523;HTU21D;59343;51.102;5.884;2023-05-10T08:26:34;15.90;80.89
71523;HTU21D;59343;51.102;5.884;2023-05-10T08:29:02;15.97;80.66
71523;HTU21D;59343;51.102;5.884;2023-05-10T08:31:32;15.99;80.54
71523;HTU21D;59343;51.102;5.884;2023-05-10T08:33:58;16.03;80.54
71523;HTU21D;59343;51.102;5.884;2023-05-10T08:36:24;16.04;80.70
71523;HTU21D;59343;51.102;5.884;2023-05-10T08:38:56;16.04;80.60
71523;HTU21D;59343;51.102;5.884;2023-05-10T08:41:29;16.01;80.51
71523;HTU21D;59343;51.102;5.884;2023-05-10T08:43:55;16.02;80.32
71523;HTU21D;59343;51.102;5.884;2023-05-10T08:46:22;16.01;80.23
71523;HTU21D;59343;51.102;5.884;2023-05-10T08:48:53;16.05;80.29
71523;HTU21D;59343;51.102;5.884;2023-05-10T08:51:24;16.02;80.04
71523;HTU21D;59343;51.102;5.884;2023-05-10T08:53:56;16.06;80.11
71523;HTU21D;59343;51.102;5.884;2023-05-10T08:59:56;16.06;79.96
71523;HTU21D;59343;51.102;5.884;2023-05-10T09:02:58;16.00;79.76
71523;HTU21D;59343;51.102;5.884;2023-05-10T09:05:33;16.00;80.14
71523;HTU21D;59343;51.102;5.884;2023-05-10T09:07:59;16.03;79.99
71523;HTU21D;59343;51.102;5.884;2023-05-10T09:10:27;16.03;79.43
71523;HTU21D;59343;51.102;5.884;2023-05-10T09:12:57;16.05;79.47
71523;HTU21D;59343;51.102;5.884;2023-05-10T09:15:23;16.10;79.66
71523;HTU21D;59343;51.102;5.884;2023-05-10T09:17:50;16.21;79.46
71523;HTU21D;59343;51.102;5.884;2023-05-10T09:20:16;16.33;79.13
71523;HTU21D;59343;51.102;5.884;2023-05-10T09:22:43;16.40;78.53
71523;HTU21D;59343;51.102;5.884;2023-05-10T09:25:14;16.42;78.27
71523;HTU21D;59343;51.102;5.884;2023-05-10T09:27:44;16.39;78.15
71523;HTU21D;59343;51.102;5.884;2023-05-10T09:30:16;16.41;78.64
71523;HTU21D;59343;51.102;5.884;2023-05-10T09:32:45;16.46;78.44
71523;HTU21D;59343;51.102;5.884;2023-05-10T09:35:16;16.59;78.69
71523;HTU21D;59343;51.102;5.884;2023-05-10T09:37:46;16.66;77.96
71523;HTU21D;59343;51.102;5.884;2023-05-10T09:40:18;16.73;77.65
71523;HTU21D;59343;51.102;5.884;2023-05-10T09:45:24;16.75;77.02
71523;HTU21D;59343;51.102;5.884;2023-05-10T09:47:54;16.77;76.95
71523;HTU21D;59343;51.102;5.884;2023-05-10T09:50:20;16.80;76.46
71523;HTU21D;59343;51.102;5.884;2023-05-10T09:52:54;16.82;76.25
71523;HTU21D;59343;51.102;5.884;2023-05-10T09:55:26;16.91;76.18
71523;HTU21D;59343;51.102;5.884;2023-05-10T09:58:03;17.07;75.94
71523;HTU21D;59343;51.102;5.884;2023-05-10T10:00:59;17.20;74.67
71523;HTU21D;59343;51.102;5.884;2023-05-10T10:03:47;17.21;74.14
71523;HTU21D;59343;51.102;5.884;2023-05-10T10:06:19;17.19;74.12
71523;HTU21D;59343;51.102;5.884;2023-05-10T10:08:46;17.17;74.12
71523;HTU21D;59343;51.102;5.884;2023-05-10T10:11:46;17.15;74.10
71523;HTU21D;59343;51.102;5.884;2023-05-10T10:14:46;17.11;74.36
71523;HTU21D;59343;51.102;5.884;2023-05-10T10:17:13;17.10;74.87
71523;HTU21D;59343;51.102;5.884;2023-05-10T10:20:03;17.07;75.17
71523;HTU21D;59343;51.102;5.884;2023-05-10T10:22:30;17.01;75.38
71523;HTU21D;59343;51.102;5.884;2023-05-10T10:24:57;16.92;75.50
71523;HTU21D;59343;51.102;5.884;2023-05-10T10:30:41;16.89;75.99
71523;HTU21D;59343;51.102;5.884;2023-05-10T10:36:06;16.86;75.92
71523;HTU21D;59343;51.102;5.884;2023-05-10T10:38:57;16.88;76.07
71523;HTU21D;59343;51.102;5.884;2023-05-10T10:41:38;16.94;76.03
71523;HTU21D;59343;51.102;5.884;2023-05-10T10:44:22;16.99;75.00
71523;HTU21D;59343;51.102;5.884;2023-05-10T10:47:07;17.05;74.84
71523;HTU21D;59343;51.102;5.884;2023-05-10T10:49:43;17.13;74.75
71523;HTU21D;59343;51.102;5.884;2023-05-10T10:52:22;17.33;75.47
71523;HTU21D;59343;51.102;5.884;2023-05-10T10:54:53;17.63;75.10
71523;HTU21D;59343;51.102;5.884;2023-05-10T10:57:21;17.93;73.90
71523;HTU21D;59343;51.102;5.884;2023-05-10T10:59:50;18.13;73.54
71523;HTU21D;59343;51.102;5.884;2023-05-10T11:02:43;18.23;72.13
71523;HTU21D;59343;51.102;5.884;2023-05-10T11:07:55;18.15;71.96
71523;HTU21D;59343;51.102;5.884;2023-05-10T11:10:23;18.13;72.06
71523;HTU21D;59343;51.102;5.884;2023-05-10T11:13:57;18.12;71.96
71523;HTU21D;59343;51.102;5.884;2023-05-10T11:16:23;18.06;72.10
71523;HTU21D;59343;51.102;5.884;2023-05-10T11:18:59;18.06;71.80
71523;HTU21D;59343;51.102;5.884;2023-05-10T11:21:31;18.12;71.48
71523;HTU21D;59343;51.102;5.884;2023-05-10T11:24:20;18.19;71.72
71523;HTU21D;59343;51.102;5.884;2023-05-10T11:26:53;18.24;71.34
71523;HTU21D;59343;51.102;5.884;2023-05-10T11:29:19;18.20;71.35
71523;HTU21D;59343;51.102;5.884;2023-05-10T11:31:47;18.18;71.55
71523;HTU21D;59343;51.102;5.884;2023-05-10T11:34:24;18.14;71.30
71523;HTU21D;59343;51.102;5.884;2023-05-10T11:36:57;18.11;71.29
71523;HTU21D;59343;51.102;5.884;2023-05-10T11:39:31;18.08;71.42
71523;HTU21D;59343;51.102;5.884;2023-05-10T11:41:58;18.18;71.50
71523;HTU21D;59343;51.102;5.884;2023-05-10T11:44:32;18.23;70.38
71523;HTU21D;59343;51.102;5.884;2023-05-10T11:46:59;18.29;70.61
71523;HTU21D;59343;51.102;5.884;2023-05-10T11:49:26;18.39;70.79
71523;HTU21D;59343;51.102;5.884;2023-05-10T11:51:53;18.54;70.42
71523;HTU21D;59343;51.102;5.884;2023-05-10T11:54:28;18.67;69.73
71523;HTU21D;59343;51.102;5.884;2023-05-10T11:56:54;18.73;69.62
71523;HTU21D;59343;51.102;5.884;2023-05-10T11:59:27;18.88;69.21
71523;HTU21D;59343;51.102;5.884;2023-05-10T12:01:54;18.96;68.49
71523;HTU21D;59343;51.102;5.884;2023-05-10T12:04:21;19.05;68.52
71523;HTU21D;59343;51.102;5.884;2023-05-10T12:06:48;19.16;68.32
71523;HTU21D;59343;51.102;5.884;2023-05-10T21:23:01;16.02;79.24
71523;HTU21D;59343;51.102;5.884;2023-05-10T21:25:27;16.01;79.46
71523;HTU21D;59343;51.102;5.884;2023-05-10T21:27:53;16.02;79.56
71523;HTU21D;59343;51.102;5.884;2023-05-10T21:30:54;16.01;79.63
71523;HTU21D;59343;51.102;5.884;2023-05-10T21:33:40;16.02;79.56
71523;HTU21D;59343;51.102;5.884;2023-05-10T21:36:30;16.01;79.42
71523;HTU21D;59343;51.102;5.884;2023-05-10T21:38:58;16.05;79.43
71523;HTU21D;59343;51.102;5.884;2023-05-10T21:41:25;16.10;79.36
71523;HTU21D;59343;51.102;5.884;2023-05-10T21:43:51;16.10;79.11
71523;HTU21D;59343;51.102;5.884;2023-05-10T21:46:24;16.11;79.01
71523;HTU21D;59343;51.102;5.884;2023-05-10T21:48:51;16.12;79.01
71523;HTU21D;59343;51.102;5.884;2023-05-10T21:51:19;16.13;78.79
71523;HTU21D;59343;51.102;5.884;2023-05-10T21:53:51;16.13;78.72
71523;HTU21D;59343;51.102;5.884;2023-05-10T21:56:27;16.08;78.71
71523;HTU21D;59343;51.102;5.884;2023-05-10T21:58:53;16.07;78.80
71523;HTU21D;59343;51.102;5.884;2023-05-10T22:01:19;16.01;78.93
71523;HTU21D;59343;51.102;5.884;2023-05-10T22:03:56;16.01;79.17
71523;HTU21D;59343;51.102;5.884;2023-05-10T22:06:32;16.01;79.38
71523;HTU21D;59343;51.102;5.884;2023-05-10T22:09:01;15.99;79.39
71523;HTU21D;59343;51.102;5.884;2023-05-10T22:11:33;15.99;79.58
71523;HTU21D;59343;51.102;5.884;2023-05-10T22:14:02;16.00;79.69
71523;HTU21D;59343;51.102;5.884;2023-05-10T22:16:29;16.00;79.85
71523;HTU21D;59343;51.102;5.884;2023-05-10T22:18:57;16.03;79.81
71523;HTU21D;59343;51.102;5.884;2023-05-10T22:21:23;16.02;79.78
71523;HTU21D;59343;51.102;5.884;2023-05-10T22:23:55;16.03;79.66
71523;HTU21D;59343;51.102;5.884;2023-05-10T22:26:27;16.03;79.64
71523;HTU21D;59343;51.102;5.884;2023-05-10T22:28:53;16.04;79.69
71523;HTU21D;59343;51.102;5.884;2023-05-10T22:31:28;16.03;79.87
71523;HTU21D;59343;51.102;5.884;2023-05-10T22:34:00;16.06;79.72
71523;HTU21D;59343;51.102;5.884;2023-05-10T22:36:47;16.03;79.59
71523;HTU21D;59343;51.102;5.884;2023-05-10T22:39:15;16.02;79.53
71523;HTU21D;59343;51.102;5.884;2023-05-10T22:41:44;16.02;79.52
71523;HTU21D;59343;51.102;5.884;2023-05-10T22:44:13;15.97;79.54
71523;HTU21D;59343;51.102;5.884;2023-05-10T22:46:42;15.97;79.65
71523;HTU21D;59343;51.102;5.884;2023-05-10T22:49:11;15.98;79.75
71523;HTU21D;59343;51.102;5.884;2023-05-10T22:51:38;15.96;79.75
71523;HTU21D;59343;51.102;5.884;2023-05-10T22:54:04;15.97;79.89
71523;HTU21D;59343;51.102;5.884;2023-05-10T22:56:31;15.96;80.01
71523;HTU21D;59343;51.102;5.884;2023-05-10T22:59:03;15.98;80.07
71523;HTU21D;59343;51.102;5.884;2023-05-10T23:01:31;16.00;79.98
71523;HTU21D;59343;51.102;5.884;2023-05-10T23:04:06;15.98;80.14
71523;HTU21D;59343;51.102;5.884;2023-05-10T23:06:33;16.00;80.25
71523;HTU21D;59343;51.102;5.884;2023-05-10T23:08:59;16.00;80.26
71523;HTU21D;59343;51.102;5.884;2023-05-10T23:11:26;16.01;80.18
71523;HTU21D;59343;51.102;5.884;2023-05-10T23:13:54;16.02;80.06
71523;HTU21D;59343;51.102;5.884;2023-05-10T23:16:21;15.99;80.11
71523;HTU21D;59343;51.102;5.884;2023-05-10T23:18:50;15.93;80.18
71523;HTU21D;59343;51.102;5.884;2023-05-10T23:21:21;15.91;80.32
71523;HTU21D;59343;51.102;5.884;2023-05-10T23:24:05;15.88;80.45
71523;HTU21D;59343;51.102;5.884;2023-05-10T23:26:41;15.88;80.41
71523;HTU21D;59343;51.102;5.884;2023-05-10T23:29:14;15.87;80.40
71523;HTU21D;59343;51.102;5.884;2023-05-10T23:31:48;15.84;80.40
71523;HTU21D;59343;51.102;5.884;2023-05-10T23:34:18;15.82;80.50
71523;HTU21D;59343;51.102;5.884;2023-05-10T23:36:47;15.82;80.39
71523;HTU21D;59343;51.102;5.884;2023-05-10T23:39:13;15.80;80.26
71523;HTU21D;59343;51.102;5.884;2023-05-10T23:41:39;15.76;80.36
71523;HTU21D;59343;51.102;5.884;2023-05-10T23:44:16;15.70;80.51
71523;HTU21D;59343;51.102;5.884;2023-05-10T23:46:47;15.69;80.71
71523;HTU21D;59343;51.102;5.884;2023-05-10T23:49:13;15.67;80.78
71523;HTU21D;59343;51.102;5.884;2023-05-10T23:51:39;15.65;80.86
71523;HTU21D;59343;51.102;5.884;2023-05-10T23:54:05;15.66;80.81
71523;HTU21D;59343;51.102;5.884;2023-05-10T23:56:31;15.62;80.74
71523;HTU21D;59343;51.102;5.884;2023-05-10T23:58:59;15.59;80.94
